createdAt,value
2017-06-02T00:02:24.478Z,5.02
2017-06-02T00:04:53.423Z,4.76
2017-06-02T00:07:22.376Z,5.50
2017-06-02T00:09:51.739Z,5.18
2017-06-02T00:12:20.687Z,4.96
2017-06-02T00:14:49.722Z,5.68
2017-06-02T00:17:18.680Z,5.68
2017-06-02T00:19:47.638Z,5.72
2017-06-02T00:22:17.028Z,5.04
2017-06-02T00:24:45.983Z,5.50
2017-06-02T00:27:14.992Z,6.58
2017-06-02T00:29:43.947Z,5.50
2017-06-02T00:32:13.565Z,8.36
2017-06-02T00:34:42.867Z,6.04
2017-06-02T00:37:11.792Z,5.30
2017-06-02T00:39:40.743Z,6.96
2017-06-02T00:42:09.718Z,7.22
2017-06-02T00:44:38.655Z,6.10
2017-06-02T00:47:07.974Z,5.38
2017-06-02T00:49:37.001Z,6.28
2017-06-02T00:52:05.939Z,6.04
2017-06-02T00:54:34.914Z,6.16
2017-06-02T00:57:03.887Z,7.32
2017-06-02T00:59:33.180Z,6.34
2017-06-02T01:02:02.115Z,6.32
2017-06-02T01:04:31.106Z,6.92
2017-06-02T01:07:00.075Z,7.28
2017-06-02T01:09:29.029Z,6.30
2017-06-02T01:11:58.382Z,7.38
2017-06-02T01:14:27.327Z,6.70
2017-06-02T01:16:56.278Z,7.18
2017-06-02T01:19:25.246Z,6.06
2017-06-02T01:21:54.214Z,6.20
2017-06-02T01:24:23.528Z,6.46
2017-06-02T01:26:52.503Z,6.34
2017-06-02T01:29:21.464Z,6.70
2017-06-02T01:31:50.439Z,6.48
2017-06-02T01:34:20.308Z,6.82
2017-06-02T01:36:49.298Z,6.98
2017-06-02T01:39:18.246Z,6.48
2017-06-02T01:41:47.537Z,6.80
2017-06-02T01:44:16.507Z,6.28
2017-06-02T01:46:45.464Z,6.54
2017-06-02T01:49:14.425Z,5.76
2017-06-02T01:51:43.470Z,6.08
2017-06-02T01:54:12.751Z,5.78
2017-06-02T01:56:41.711Z,7.10
2017-06-02T01:59:10.679Z,6.36
2017-06-02T02:01:39.631Z,6.34
2017-06-02T02:04:08.570Z,6.66
2017-06-02T02:06:37.912Z,6.94
2017-06-02T02:09:06.870Z,6.58
2017-06-02T02:11:35.841Z,6.84
2017-06-02T02:14:04.828Z,6.34
2017-06-02T02:16:33.789Z,7.04
2017-06-02T02:19:03.100Z,5.70
2017-06-02T02:21:32.042Z,7.32
2017-06-02T02:24:00.994Z,5.98
2017-06-02T02:26:29.978Z,6.34
2017-06-02T02:28:58.925Z,7.52
2017-06-02T02:31:28.266Z,6.88
2017-06-02T02:33:57.270Z,6.32
2017-06-02T02:36:26.211Z,6.66
2017-06-02T02:38:55.183Z,5.48
2017-06-02T02:41:24.135Z,6.68
2017-06-02T02:43:53.555Z,6.88
2017-06-02T02:46:22.505Z,6.40
2017-06-02T02:48:51.535Z,5.86
2017-06-02T02:51:20.509Z,6.82
2017-06-02T02:53:49.431Z,6.14
2017-06-02T02:56:17.976Z,6.88
2017-06-02T02:58:46.920Z,6.02
2017-06-02T03:01:15.880Z,5.76
2017-06-02T03:03:44.911Z,5.84
2017-06-02T03:06:13.881Z,5.32
2017-06-02T03:08:43.254Z,6.20
2017-06-02T03:11:12.194Z,5.74
2017-06-02T03:13:41.160Z,5.80
2017-06-02T03:16:10.138Z,6.04
2017-06-02T03:18:39.093Z,6.84
2017-06-02T03:21:08.412Z,6.62
2017-06-02T03:23:37.373Z,6.08
2017-06-02T03:26:06.359Z,6.24
2017-06-02T03:28:35.333Z,5.48
2017-06-02T03:31:04.679Z,5.92
2017-06-02T03:33:33.961Z,6.32
2017-06-02T03:36:02.910Z,6.16
2017-06-02T03:38:31.871Z,5.92
2017-06-02T03:41:00.849Z,6.42
2017-06-02T03:43:29.849Z,5.60
2017-06-02T03:45:59.155Z,6.52
2017-06-02T03:48:28.089Z,5.30
2017-06-02T03:50:57.208Z,5.98
2017-06-02T03:53:26.162Z,6.62
2017-06-02T03:55:55.119Z,6.12
2017-06-02T03:58:24.434Z,7.56
2017-06-02T04:00:53.366Z,7.12
2017-06-02T04:03:22.335Z,7.12
2017-06-02T04:05:51.352Z,6.00
2017-06-02T04:08:20.301Z,7.18
2017-06-02T04:10:49.698Z,7.34
2017-06-02T04:13:18.647Z,6.64
2017-06-02T04:15:47.602Z,6.18
2017-06-02T04:18:16.583Z,6.26
2017-06-02T04:20:45.516Z,6.22
2017-06-02T04:23:14.847Z,6.74
2017-06-02T04:25:43.813Z,6.68
2017-06-02T04:28:12.750Z,6.10
2017-06-02T04:30:41.743Z,6.40
2017-06-02T04:33:10.711Z,6.64
2017-06-02T04:35:40.139Z,7.12
2017-06-02T04:38:09.122Z,6.96
2017-06-02T04:40:38.071Z,6.24
2017-06-02T04:43:07.038Z,7.18
2017-06-02T04:45:36.077Z,6.50
2017-06-02T04:48:05.043Z,6.46
2017-06-02T04:50:33.979Z,6.70
2017-06-02T04:53:03.371Z,6.82
2017-06-02T04:55:32.337Z,6.56
2017-06-02T04:58:01.301Z,6.38
2017-06-02T05:00:30.283Z,4.54
2017-06-02T05:02:59.248Z,4.86
2017-06-02T05:05:28.647Z,5.04
2017-06-02T05:07:57.636Z,5.54
2017-06-02T05:10:26.601Z,5.74
2017-06-02T05:12:55.591Z,4.54
2017-06-02T05:15:24.531Z,4.70
2017-06-02T05:17:53.913Z,4.74
2017-06-02T05:20:22.863Z,3.94
2017-06-02T05:22:51.826Z,3.86
2017-06-02T05:25:20.806Z,4.44
2017-06-02T05:27:49.766Z,3.58
2017-06-02T05:30:19.039Z,4.88
2017-06-02T05:32:47.974Z,3.62
2017-06-02T05:35:16.938Z,3.30
2017-06-02T05:37:45.967Z,3.10
2017-06-02T05:40:14.930Z,3.12
2017-06-02T05:42:43.571Z,2.72
2017-06-02T05:45:12.517Z,1.84
2017-06-02T05:47:41.480Z,2.34
2017-06-02T05:50:10.427Z,2.22
2017-06-02T05:52:39.461Z,1.92
2017-06-02T05:55:08.877Z,1.66
2017-06-02T05:57:37.907Z,2.36
2017-06-02T06:00:06.850Z,1.80
2017-06-02T06:02:36.005Z,1.80
2017-06-02T06:05:05.032Z,2.10
2017-06-02T06:07:34.320Z,2.12
2017-06-02T06:10:03.267Z,1.74
2017-06-02T06:12:32.342Z,2.50
2017-06-02T06:15:01.380Z,2.38
2017-06-02T06:17:30.336Z,1.50
2017-06-02T06:19:59.823Z,2.40
2017-06-02T06:22:28.776Z,2.08
2017-06-02T06:24:57.713Z,2.14
2017-06-02T06:27:26.683Z,1.54
2017-06-02T06:29:55.669Z,1.58
2017-06-02T06:32:25.015Z,1.90
2017-06-02T06:34:54.001Z,1.60
2017-06-02T06:37:22.967Z,1.22
2017-06-02T06:39:51.943Z,1.36
2017-06-02T06:42:20.899Z,1.78
2017-06-02T06:44:50.224Z,1.40
2017-06-02T06:47:19.192Z,1.26
2017-06-02T06:49:48.150Z,1.80
2017-06-02T06:52:17.123Z,1.50
2017-06-02T06:54:46.086Z,1.84
2017-06-02T06:57:15.658Z,1.44
2017-06-02T06:59:44.624Z,1.62
2017-06-02T07:02:13.629Z,1.40
2017-06-02T07:04:42.581Z,1.60
2017-06-02T07:07:11.527Z,1.90
2017-06-02T07:09:42.684Z,1.16
2017-06-02T07:12:11.641Z,1.52
2017-06-02T07:14:41.032Z,1.42
2017-06-02T07:17:09.976Z,2.12
2017-06-02T07:19:38.934Z,0.88
2017-06-02T07:22:07.927Z,1.20
2017-06-02T07:24:36.903Z,1.60
2017-06-02T07:27:06.211Z,1.06
2017-06-02T07:29:35.162Z,1.18
2017-06-02T07:32:04.123Z,0.96
2017-06-02T07:34:33.095Z,1.32
2017-06-02T07:37:02.077Z,0.90
2017-06-02T07:39:31.485Z,1.18
2017-06-02T07:42:00.456Z,1.84
2017-06-02T07:44:29.396Z,0.96
2017-06-02T07:46:58.759Z,1.00
2017-06-02T07:49:27.739Z,1.08
2017-06-02T07:51:56.727Z,1.72
2017-06-02T07:54:26.037Z,0.92
2017-06-02T07:56:55.049Z,0.80
2017-06-02T07:59:23.981Z,1.04
2017-06-02T08:01:53.321Z,0.78
2017-06-02T08:04:22.278Z,0.86
2017-06-02T08:06:51.242Z,0.94
2017-06-02T08:09:20.619Z,0.94
2017-06-02T08:11:49.579Z,1.10
2017-06-02T08:14:18.537Z,0.90
2017-06-02T08:16:47.869Z,1.30
2017-06-02T08:19:16.819Z,0.64
2017-06-02T08:21:45.794Z,1.10
2017-06-02T08:24:15.477Z,1.18
2017-06-02T08:26:44.436Z,0.80
2017-06-02T08:29:13.477Z,1.20
2017-06-02T08:31:42.900Z,0.92
2017-06-02T08:34:11.891Z,1.08
2017-06-02T08:36:40.895Z,1.30
2017-06-02T08:39:10.204Z,0.70
2017-06-02T08:41:39.151Z,1.02
2017-06-02T08:44:08.107Z,0.98
2017-06-02T08:46:37.444Z,0.80
2017-06-02T08:49:06.382Z,1.36
2017-06-02T08:51:35.595Z,0.66
2017-06-02T08:54:04.945Z,1.00
2017-06-02T08:56:33.909Z,0.80
2017-06-02T08:59:02.864Z,0.98
2017-06-02T09:01:32.195Z,1.00
2017-06-02T09:04:01.173Z,0.80
2017-06-02T09:06:30.133Z,1.04
2017-06-02T09:08:59.467Z,1.42
2017-06-02T09:11:28.479Z,0.70
2017-06-02T09:13:57.509Z,1.80
2017-06-02T09:16:26.860Z,1.14
2017-06-02T09:18:55.849Z,1.00
2017-06-02T09:21:24.837Z,0.90
2017-06-02T09:23:54.139Z,0.62
2017-06-02T09:26:23.182Z,1.08
2017-06-02T09:28:52.133Z,0.64
2017-06-02T09:31:21.439Z,0.60
2017-06-02T09:33:50.384Z,1.02
2017-06-02T09:36:19.368Z,1.84
2017-06-02T09:38:48.741Z,1.06
2017-06-02T09:41:17.682Z,1.08
2017-06-02T09:43:46.645Z,0.88
2017-06-02T09:46:15.963Z,1.00
2017-06-02T09:48:44.901Z,1.14
2017-06-02T09:51:13.842Z,0.70
2017-06-02T09:53:43.138Z,0.42
2017-06-02T09:56:12.061Z,1.04
2017-06-02T09:58:40.998Z,1.00
2017-06-02T10:01:10.290Z,0.70
2017-06-02T10:03:39.243Z,0.76
2017-06-02T10:06:08.190Z,1.08
2017-06-02T10:08:37.540Z,1.02
2017-06-02T10:11:06.486Z,0.72
2017-06-02T10:13:35.487Z,0.52
2017-06-02T10:16:04.780Z,0.88
2017-06-02T10:18:33.735Z,1.10
2017-06-02T10:21:02.690Z,0.92
2017-06-02T10:23:32.107Z,1.56
2017-06-02T10:26:01.056Z,0.88
2017-06-02T10:28:30.062Z,1.06
2017-06-02T10:30:59.504Z,0.92
2017-06-02T10:33:28.494Z,1.06
2017-06-02T10:35:57.455Z,1.04
2017-06-02T10:38:26.818Z,0.72
2017-06-02T10:40:55.757Z,1.04
2017-06-02T10:43:24.704Z,0.88
2017-06-02T10:45:54.137Z,0.86
2017-06-02T10:48:23.104Z,0.94
2017-06-02T10:50:52.076Z,1.06
2017-06-02T10:53:21.505Z,1.00
2017-06-02T10:55:50.471Z,0.94
2017-06-02T10:58:19.466Z,0.78
2017-06-02T11:00:48.827Z,1.16
2017-06-02T11:03:17.779Z,1.86
2017-06-02T11:05:47.390Z,0.90
2017-06-02T11:08:16.727Z,0.90
2017-06-02T11:10:45.725Z,1.20
2017-06-02T11:13:14.669Z,1.96
2017-06-02T11:15:43.968Z,1.16
2017-06-02T11:18:12.914Z,0.86
2017-06-02T11:20:41.899Z,1.06
2017-06-02T11:23:11.187Z,1.10
2017-06-02T11:25:40.226Z,1.00
2017-06-02T11:28:09.162Z,1.18
2017-06-02T11:30:38.447Z,1.10
2017-06-02T11:33:07.398Z,1.08
2017-06-02T11:35:36.363Z,1.14
2017-06-02T11:38:05.760Z,1.16
2017-06-02T11:40:34.714Z,1.00
2017-06-02T11:43:03.686Z,1.42
2017-06-02T11:45:33.066Z,1.34
2017-06-02T11:48:02.026Z,0.86
2017-06-02T11:50:30.962Z,1.40
2017-06-02T11:53:00.423Z,1.68
2017-06-02T11:55:29.376Z,1.30
2017-06-02T11:57:58.333Z,1.20
2017-06-02T12:00:27.623Z,1.66
2017-06-02T12:02:56.573Z,1.22
2017-06-02T12:05:25.564Z,1.38
2017-06-02T12:07:54.893Z,1.26
2017-06-02T12:10:23.822Z,1.24
2017-06-02T12:12:52.833Z,1.86
2017-06-02T12:15:22.160Z,1.80
2017-06-02T12:17:51.130Z,0.96
2017-06-02T12:20:20.083Z,1.30
2017-06-02T12:22:49.466Z,1.46
2017-06-02T12:25:18.410Z,1.70
2017-06-02T12:27:47.384Z,1.26
2017-06-02T12:30:16.750Z,1.76
2017-06-02T12:32:45.698Z,1.42
2017-06-02T12:35:14.663Z,1.38
2017-06-02T12:37:43.956Z,1.98
2017-06-02T12:40:12.920Z,1.44
2017-06-02T12:42:41.876Z,1.30
2017-06-02T12:45:11.202Z,1.28
2017-06-02T12:47:40.158Z,1.68
2017-06-02T12:50:09.167Z,1.82
2017-06-02T12:52:38.596Z,1.42
2017-06-02T12:55:07.540Z,1.90
2017-06-02T12:57:36.487Z,1.54
2017-06-02T13:00:05.974Z,1.50
2017-06-02T13:02:34.953Z,1.30
2017-06-02T13:05:04.037Z,1.60
2017-06-02T13:07:33.365Z,1.08
2017-06-02T13:10:02.343Z,1.08
2017-06-02T13:12:31.311Z,1.10
2017-06-02T13:15:00.600Z,1.24
2017-06-02T13:17:29.546Z,2.22
2017-06-02T13:19:58.481Z,1.56
2017-06-02T13:22:27.898Z,0.90
2017-06-02T13:24:56.843Z,1.26
2017-06-02T13:27:25.786Z,1.82
2017-06-02T13:29:55.110Z,0.88
2017-06-02T13:32:24.066Z,1.26
2017-06-02T13:34:53.023Z,1.34
2017-06-02T13:37:22.395Z,1.40
2017-06-02T13:39:51.443Z,1.56
2017-06-02T13:42:20.385Z,1.40
2017-06-02T13:44:49.656Z,1.48
2017-06-02T13:47:18.611Z,2.98
2017-06-02T13:49:47.568Z,1.48
2017-06-02T13:52:16.967Z,1.44
2017-06-02T13:54:45.922Z,1.98
2017-06-02T13:57:14.876Z,1.94
2017-06-02T13:59:44.251Z,1.94
2017-06-02T14:02:13.232Z,1.16
2017-06-02T14:04:42.190Z,1.24
2017-06-02T14:07:11.641Z,1.16
2017-06-02T14:09:40.589Z,1.36
2017-06-02T14:12:09.535Z,1.72
2017-06-02T14:14:38.906Z,1.82
2017-06-02T14:17:07.862Z,0.90
2017-06-02T14:19:36.827Z,1.16
2017-06-02T14:22:06.246Z,1.32
2017-06-02T14:24:35.182Z,1.32
2017-06-02T14:27:04.143Z,1.74
2017-06-02T14:29:33.469Z,1.30
2017-06-02T14:32:02.402Z,1.36
2017-06-02T14:34:31.366Z,1.66
2017-06-02T14:37:00.671Z,1.28
2017-06-02T14:39:29.630Z,1.40
2017-06-02T14:41:58.605Z,1.94
2017-06-02T14:44:27.922Z,1.72
2017-06-02T14:46:56.141Z,1.96
2017-06-02T14:49:25.119Z,1.86
2017-06-02T14:51:54.525Z,1.46
2017-06-02T14:54:23.494Z,1.38
2017-06-02T14:56:52.449Z,1.32
2017-06-02T14:59:21.827Z,1.62
2017-06-02T15:01:50.791Z,1.50
2017-06-02T15:04:19.755Z,1.10
2017-06-02T15:06:49.106Z,1.38
2017-06-02T15:09:18.076Z,1.66
2017-06-02T15:11:47.051Z,1.18
2017-06-02T15:14:16.438Z,1.76
2017-06-02T15:16:45.401Z,1.48
2017-06-02T15:19:14.361Z,1.60
2017-06-02T15:21:43.746Z,1.16
2017-06-02T15:24:12.682Z,1.06
2017-06-02T15:26:41.655Z,1.26
2017-06-02T15:29:11.033Z,1.12
2017-06-02T15:31:39.984Z,0.70
2017-06-02T15:34:08.930Z,1.14
2017-06-02T15:36:38.324Z,1.12
2017-06-02T15:39:07.483Z,0.78
2017-06-02T15:41:36.421Z,1.34
2017-06-02T15:44:05.810Z,1.12
2017-06-02T15:46:34.775Z,1.00
2017-06-02T15:49:03.788Z,1.10
2017-06-02T15:51:33.096Z,0.80
2017-06-02T15:54:02.041Z,1.08
2017-06-02T15:56:31.150Z,1.10
2017-06-02T15:59:00.470Z,1.00
2017-06-02T16:01:29.410Z,0.90
2017-06-02T16:03:58.371Z,0.78
2017-06-02T16:06:27.788Z,0.84
2017-06-02T16:08:56.764Z,0.70
2017-06-02T16:11:25.736Z,1.06
2017-06-02T16:13:55.138Z,0.74
2017-06-02T16:16:24.098Z,0.80
2017-06-02T16:18:53.063Z,0.60
2017-06-02T16:21:22.334Z,0.78
2017-06-02T16:23:51.268Z,0.74
2017-06-02T16:26:20.227Z,0.50
2017-06-02T16:28:49.503Z,0.48
2017-06-02T16:31:18.478Z,0.90
2017-06-02T16:33:47.432Z,1.10
2017-06-02T16:36:16.796Z,1.04
2017-06-02T16:38:45.796Z,0.76
2017-06-02T16:41:14.749Z,0.74
2017-06-02T16:43:44.209Z,0.78
2017-06-02T16:46:13.214Z,0.90
2017-06-02T16:48:42.167Z,0.88
2017-06-02T16:51:11.570Z,0.72
2017-06-02T16:53:41.351Z,0.64
2017-06-02T16:56:10.308Z,0.78
2017-06-02T16:58:39.592Z,0.80
2017-06-02T17:01:08.627Z,0.64
2017-06-02T17:03:37.603Z,0.82
2017-06-02T17:06:06.941Z,0.68
2017-06-02T17:08:35.939Z,0.50
2017-06-02T17:11:04.903Z,0.90
2017-06-02T17:13:34.225Z,0.86
2017-06-02T17:16:03.191Z,1.08
2017-06-02T17:18:32.235Z,0.60
2017-06-02T17:21:01.574Z,0.80
2017-06-02T17:23:30.534Z,0.82
2017-06-02T17:25:59.486Z,0.96
2017-06-02T17:28:28.815Z,1.50
2017-06-02T17:30:57.774Z,0.78
2017-06-02T17:33:26.734Z,0.90
2017-06-02T17:35:56.193Z,1.10
2017-06-02T17:38:25.171Z,0.70
2017-06-02T17:40:54.247Z,0.90
2017-06-02T17:43:23.669Z,0.60
2017-06-02T17:45:52.632Z,0.58
2017-06-02T17:48:21.594Z,0.68
2017-06-02T17:50:50.955Z,1.28
2017-06-02T17:53:19.912Z,0.74
2017-06-02T17:55:48.880Z,0.90
2017-06-02T17:58:18.231Z,0.90
2017-06-02T18:00:47.203Z,0.78
2017-06-02T18:03:16.196Z,1.44
2017-06-02T18:05:45.629Z,0.96
2017-06-02T18:08:14.595Z,0.72
2017-06-02T18:10:43.533Z,0.76
2017-06-02T18:13:12.906Z,0.86
2017-06-02T18:15:41.851Z,0.76
2017-06-02T18:18:10.791Z,0.74
2017-06-02T18:20:40.285Z,0.72
2017-06-02T18:23:09.227Z,1.06
2017-06-02T18:25:38.186Z,0.90
2017-06-02T18:28:07.573Z,0.88
2017-06-02T18:30:36.515Z,0.78
2017-06-02T18:33:05.472Z,1.00
2017-06-02T18:35:34.877Z,1.06
2017-06-02T18:38:03.786Z,0.96
2017-06-02T18:40:32.759Z,1.46
2017-06-02T18:43:02.144Z,1.42
2017-06-02T18:45:31.110Z,1.64
2017-06-02T18:48:00.105Z,1.20
2017-06-02T18:50:29.496Z,1.28
2017-06-02T18:52:58.447Z,1.36
2017-06-02T18:55:27.366Z,1.76
2017-06-02T18:57:56.711Z,1.80
2017-06-02T19:00:25.655Z,1.50
2017-06-02T19:02:54.666Z,2.40
2017-06-02T19:05:23.996Z,1.46
2017-06-02T19:07:52.951Z,1.84
2017-06-02T19:10:21.941Z,1.34
2017-06-02T19:12:51.244Z,1.60
2017-06-02T19:15:20.221Z,1.30
2017-06-02T19:17:49.196Z,1.62
2017-06-02T19:20:18.563Z,1.94
2017-06-02T19:22:48.231Z,1.48
2017-06-02T19:25:17.175Z,1.42
2017-06-02T19:27:46.573Z,1.10
2017-06-02T19:30:15.549Z,1.20
2017-06-02T19:32:44.477Z,1.18
2017-06-02T19:35:13.942Z,1.76
2017-06-02T19:37:42.908Z,1.64
2017-06-02T19:40:11.852Z,1.20
2017-06-02T19:42:41.238Z,1.74
2017-06-02T19:45:10.189Z,3.10
2017-06-02T19:47:39.152Z,13.16
2017-06-02T19:50:08.450Z,11.58
2017-06-02T19:52:37.428Z,5.56
2017-06-02T19:55:06.407Z,2.78
2017-06-02T19:57:35.725Z,1.58
2017-06-02T20:00:04.689Z,2.10
2017-06-02T20:02:33.648Z,1.40
2017-06-02T20:05:02.939Z,2.26
2017-06-02T20:07:31.899Z,2.14
2017-06-02T20:10:00.836Z,2.08
2017-06-02T20:12:30.133Z,2.10
2017-06-02T20:14:59.092Z,2.52
2017-06-02T20:17:28.099Z,3.48
2017-06-02T20:19:57.408Z,2.88
2017-06-02T20:22:26.405Z,3.18
2017-06-02T20:24:55.365Z,2.96
2017-06-02T20:27:23.925Z,2.80
2017-06-02T20:29:52.912Z,3.60
2017-06-02T20:32:21.912Z,3.50
2017-06-02T20:34:51.386Z,2.94
2017-06-02T20:37:20.375Z,2.70
2017-06-02T20:39:49.365Z,2.64
2017-06-02T20:42:18.707Z,3.22
2017-06-02T20:44:47.663Z,3.30
2017-06-02T20:47:16.627Z,3.24
2017-06-02T20:49:45.967Z,3.36
2017-06-02T20:52:14.924Z,3.58
2017-06-02T20:54:43.887Z,3.50
2017-06-02T20:57:13.228Z,4.12
2017-06-02T20:59:42.232Z,3.68
2017-06-02T21:02:11.193Z,4.46
2017-06-02T21:04:40.462Z,4.38
2017-06-02T21:07:09.443Z,4.48
2017-06-02T21:09:38.421Z,4.12
2017-06-02T21:12:07.835Z,3.90
2017-06-02T21:14:36.797Z,4.40
2017-06-02T21:17:05.750Z,4.12
2017-06-02T21:19:35.069Z,4.54
2017-06-02T21:22:04.034Z,3.90
2017-06-02T21:24:32.974Z,4.28
2017-06-02T21:27:02.397Z,4.72
2017-06-02T21:29:31.866Z,4.12
2017-06-02T21:32:00.829Z,4.18
2017-06-02T21:34:30.105Z,4.40
2017-06-02T21:36:59.055Z,5.26
2017-06-02T21:39:28.047Z,4.06
2017-06-02T21:41:57.391Z,4.52
2017-06-02T21:44:26.393Z,4.54
2017-06-02T21:46:55.396Z,5.40
2017-06-02T21:49:24.783Z,4.28
2017-06-02T21:51:53.768Z,4.52
2017-06-02T21:54:22.743Z,4.60
2017-06-02T21:56:51.312Z,4.14
2017-06-02T21:59:20.239Z,4.60
2017-06-02T22:01:49.147Z,4.26
2017-06-02T22:04:18.622Z,4.68
2017-06-02T22:06:47.575Z,4.50
2017-06-02T22:09:16.606Z,4.48
2017-06-02T22:11:45.919Z,3.96
2017-06-02T22:14:15.075Z,3.88
2017-06-02T22:16:44.059Z,4.40
2017-06-02T22:19:13.365Z,4.56
2017-06-02T22:21:42.329Z,4.40
2017-06-02T22:24:11.269Z,4.52
2017-06-02T22:26:40.662Z,4.10
2017-06-02T22:29:09.614Z,4.86
2017-06-02T22:31:38.569Z,4.14
2017-06-02T22:34:07.851Z,5.38
2017-06-02T22:36:36.828Z,4.40
2017-06-02T22:39:05.020Z,4.20
2017-06-02T22:41:34.447Z,4.82
2017-06-02T22:44:03.402Z,3.96
2017-06-02T22:46:32.353Z,3.80
2017-06-02T22:49:01.687Z,3.74
2017-06-02T22:51:30.650Z,4.46
2017-06-02T22:53:59.618Z,5.08
2017-06-02T22:56:28.959Z,3.90
2017-06-02T22:58:57.914Z,4.58
2017-06-02T23:01:26.886Z,4.58
2017-06-02T23:03:56.191Z,4.46
2017-06-02T23:06:25.135Z,4.68
2017-06-02T23:08:54.074Z,4.20
2017-06-02T23:11:23.429Z,3.76
2017-06-02T23:13:52.400Z,3.96
2017-06-02T23:16:21.333Z,3.88
2017-06-02T23:18:50.718Z,4.80
2017-06-02T23:21:19.653Z,4.94
2017-06-02T23:23:48.592Z,4.58
2017-06-02T23:26:17.897Z,4.36
2017-06-02T23:28:46.868Z,3.72
2017-06-02T23:31:15.911Z,4.28
2017-06-02T23:33:45.273Z,3.74
2017-06-02T23:36:14.235Z,3.86
2017-06-02T23:38:43.180Z,3.98
2017-06-02T23:41:12.555Z,3.54
2017-06-02T23:43:41.495Z,4.08
2017-06-02T23:46:10.464Z,3.60
2017-06-02T23:48:39.846Z,3.92
2017-06-02T23:51:08.847Z,4.78
2017-06-02T23:53:37.908Z,3.82
2017-06-02T23:56:07.181Z,3.52
2017-06-02T23:58:36.130Z,3.86
